createdAt,value
2018-12-25T00:02:07.721Z,2.70
2018-12-25T00:04:47.720Z,2.70
2018-12-25T00:07:24.035Z,2.80
2018-12-25T00:10:04.074Z,2.70
2018-12-25T00:12:40.185Z,2.70
2018-12-25T00:15:21.355Z,2.70
2018-12-25T00:17:56.970Z,2.60
2018-12-25T00:20:41.675Z,2.70
2018-12-25T00:23:20.818Z,2.70
2018-12-25T00:26:00.101Z,2.70
2018-12-25T00:28:37.502Z,2.70
2018-12-25T00:31:16.722Z,2.60
2018-12-25T00:33:54.068Z,2.60
2018-12-25T00:36:32.623Z,2.60
2018-12-25T00:39:14.435Z,2.60
2018-12-25T00:41:53.216Z,2.60
2018-12-25T00:44:34.963Z,2.70
2018-12-25T00:47:15.336Z,2.60
2018-12-25T00:49:57.095Z,2.60
2018-12-25T00:52:35.337Z,2.70
2018-12-25T00:55:16.820Z,2.60
2018-12-25T00:57:55.780Z,2.70
2018-12-25T01:00:33.754Z,2.70
2018-12-25T01:03:14.402Z,2.60
2018-12-25T01:05:52.627Z,2.60
2018-12-25T01:08:34.623Z,2.70
2018-12-25T01:11:10.758Z,2.70
2018-12-25T01:13:47.719Z,2.70
2018-12-25T01:16:27.294Z,2.70
2018-12-25T01:19:04.871Z,2.70
2018-12-25T01:21:46.700Z,2.70
2018-12-25T01:24:24.216Z,2.80
2018-12-25T01:27:06.477Z,2.70
2018-12-25T01:29:45.817Z,2.70
2018-12-25T01:32:21.773Z,2.70
2018-12-25T01:34:57.096Z,2.60
2018-12-25T01:37:38.064Z,2.60
2018-12-25T01:40:16.618Z,2.50
2018-12-25T01:42:53.515Z,2.50
2018-12-25T01:45:33.561Z,2.50
2018-12-25T01:48:11.907Z,2.40
2018-12-25T01:50:51.810Z,2.30
2018-12-25T01:53:29.527Z,2.20
2018-12-25T01:56:10.099Z,2.20
2018-12-25T01:58:48.079Z,2.10
2018-12-25T02:01:27.718Z,2.00
2018-12-25T02:04:05.358Z,2.00
2018-12-25T02:06:44.115Z,1.90
2018-12-25T02:09:23.778Z,1.90
2018-12-25T02:12:02.179Z,1.90
2018-12-25T02:14:38.505Z,1.90
2018-12-25T02:17:18.606Z,1.80
2018-12-25T02:19:57.715Z,1.80
2018-12-25T02:22:37.831Z,1.80
2018-12-25T02:25:15.187Z,1.80
2018-12-25T02:27:50.371Z,1.80
2018-12-25T02:30:32.668Z,1.80
2018-12-25T02:33:13.996Z,1.80
2018-12-25T02:35:55.030Z,1.70
2018-12-25T02:38:33.815Z,1.70
2018-12-25T02:41:15.912Z,1.70
2018-12-25T02:43:55.057Z,1.80
2018-12-25T02:46:36.898Z,1.80
2018-12-25T02:49:13.924Z,1.90
2018-12-25T02:51:53.225Z,2.00
2018-12-25T02:54:34.313Z,2.00
2018-12-25T02:57:13.889Z,2.00
2018-12-25T02:59:53.723Z,2.00
2018-12-25T03:02:31.311Z,2.00
2018-12-25T03:05:07.935Z,2.00
2018-12-25T03:07:49.988Z,2.00
2018-12-25T03:10:35.367Z,2.00
2018-12-25T03:13:13.816Z,2.00
2018-12-25T03:15:54.799Z,2.00
2018-12-25T03:18:35.421Z,2.00
2018-12-25T03:21:16.501Z,2.00
2018-12-25T03:23:54.415Z,2.00
2018-12-25T03:26:40.100Z,2.00
2018-12-25T03:29:26.077Z,1.90
2018-12-25T03:32:04.755Z,2.00
2018-12-25T03:34:45.118Z,2.00
2018-12-25T03:37:24.597Z,2.00
2018-12-25T03:40:06.561Z,2.00
2018-12-25T03:42:46.020Z,2.00
2018-12-25T03:45:21.118Z,2.00
2018-12-25T03:47:57.715Z,2.10
2018-12-25T03:50:35.771Z,2.10
2018-12-25T03:53:16.021Z,2.00
2018-12-25T03:55:55.034Z,2.00
2018-12-25T03:58:34.515Z,2.00
2018-12-25T04:01:13.601Z,1.90
2018-12-25T04:03:57.712Z,2.00
2018-12-25T04:06:36.713Z,2.10
2018-12-25T04:09:14.885Z,2.10
2018-12-25T04:11:48.390Z,2.10
2018-12-25T04:14:27.713Z,2.00
2018-12-25T04:17:07.168Z,1.90
2018-12-25T04:19:45.732Z,1.80
2018-12-25T04:22:24.471Z,1.80
2018-12-25T04:25:03.879Z,1.70
2018-12-25T04:27:45.863Z,1.80
2018-12-25T04:30:26.330Z,1.70
2018-12-25T04:33:05.632Z,1.80
2018-12-25T04:35:43.444Z,1.70
2018-12-25T04:38:23.619Z,1.70
2018-12-25T04:41:04.025Z,1.70
2018-12-25T04:43:45.791Z,1.80
2018-12-25T04:46:21.723Z,1.80
2018-12-25T04:48:57.962Z,1.80
2018-12-25T04:51:37.710Z,1.70
2018-12-25T04:54:17.710Z,1.70
2018-12-25T04:56:56.864Z,1.70
2018-12-25T04:59:35.608Z,1.70
2018-12-25T05:02:14.122Z,1.70
2018-12-25T05:04:53.907Z,1.70
2018-12-25T05:07:34.346Z,1.80
2018-12-25T05:10:14.938Z,1.80
2018-12-25T05:12:56.457Z,1.80
2018-12-25T05:15:36.790Z,1.80
2018-12-25T05:18:20.090Z,1.80
2018-12-25T05:20:57.709Z,1.80
2018-12-25T05:23:38.946Z,1.80
2018-12-25T05:26:13.216Z,1.80
2018-12-25T05:28:57.065Z,1.80
2018-12-25T05:31:36.353Z,1.80
2018-12-25T05:34:13.971Z,1.80
2018-12-25T05:36:54.083Z,1.80
2018-12-25T05:39:30.655Z,1.80
2018-12-25T05:42:07.710Z,1.80
2018-12-25T05:44:49.862Z,1.80
2018-12-25T05:47:28.445Z,1.70
2018-12-25T05:50:07.709Z,1.70
2018-12-25T05:52:44.482Z,1.70
2018-12-25T05:55:24.338Z,1.70
2018-12-25T05:58:03.333Z,1.70
2018-12-25T06:00:45.199Z,1.70
2018-12-25T06:03:25.604Z,1.70
2018-12-25T06:06:07.710Z,1.70
2018-12-25T06:08:47.036Z,1.70
2018-12-25T06:11:26.692Z,1.70
2018-12-25T06:14:06.238Z,1.70
2018-12-25T06:16:45.370Z,1.70
2018-12-25T06:19:25.230Z,1.70
2018-12-25T06:22:04.656Z,1.60
2018-12-25T06:24:45.047Z,1.60
2018-12-25T06:27:24.228Z,1.70
2018-12-25T06:30:00.162Z,1.70
2018-12-25T06:32:38.638Z,1.70
2018-12-25T06:35:19.381Z,1.70
2018-12-25T06:38:00.094Z,1.60
2018-12-25T06:40:47.697Z,1.60
2018-12-25T06:43:26.624Z,1.50
2018-12-25T06:46:04.293Z,1.50
2018-12-25T06:48:45.103Z,1.50
2018-12-25T06:51:27.217Z,1.40
2018-12-25T06:54:07.712Z,1.40
2018-12-25T06:56:47.708Z,1.30
2018-12-25T06:59:29.462Z,1.30
2018-12-25T07:02:10.858Z,1.30
2018-12-25T07:04:49.341Z,1.20
2018-12-25T07:07:27.311Z,1.30
2018-12-25T07:10:09.020Z,1.20
2018-12-25T07:12:46.253Z,1.20
2018-12-25T07:15:23.551Z,1.20
2018-12-25T07:18:04.388Z,1.20
2018-12-25T07:20:44.715Z,1.20
2018-12-25T07:23:26.068Z,1.20
2018-12-25T07:26:02.139Z,1.20
2018-12-25T07:28:37.034Z,1.20
2018-12-25T07:31:19.337Z,1.30
2018-12-25T07:33:57.707Z,1.30
2018-12-25T07:36:39.826Z,1.30
2018-12-25T07:39:14.055Z,1.30
2018-12-25T07:41:46.520Z,1.40
2018-12-25T07:44:24.286Z,1.40
2018-12-25T07:46:53.861Z,1.40
2018-12-25T07:49:30.684Z,1.40
2018-12-25T07:52:10.989Z,1.50
2018-12-25T07:54:48.384Z,1.50
2018-12-25T07:57:23.247Z,1.50
2018-12-25T08:00:04.144Z,1.60
2018-12-25T08:02:41.164Z,1.60
2018-12-25T08:05:16.813Z,1.60
2018-12-25T08:07:53.994Z,1.70
2018-12-25T08:10:30.192Z,1.70
2018-12-25T08:13:00.208Z,1.70
2018-12-25T08:15:41.937Z,1.70
2018-12-25T08:18:23.342Z,1.70
2018-12-25T08:20:59.076Z,1.60
2018-12-25T08:23:35.605Z,1.60
2018-12-25T08:26:11.649Z,1.60
2018-12-25T08:28:43.373Z,1.60
2018-12-25T08:31:19.804Z,1.70
2018-12-25T08:33:59.844Z,1.70
2018-12-25T08:36:37.706Z,1.70
2018-12-25T08:39:16.048Z,1.70
2018-12-25T08:41:51.417Z,1.80
2018-12-25T08:44:29.276Z,1.80
2018-12-25T08:47:08.588Z,1.90
2018-12-25T08:49:50.215Z,1.90
2018-12-25T08:52:29.962Z,2.00
2018-12-25T08:55:02.756Z,2.10
2018-12-25T08:57:35.909Z,2.10
2018-12-25T09:00:14.632Z,2.10
2018-12-25T09:02:50.798Z,2.20
2018-12-25T09:05:24.926Z,2.10
2018-12-25T09:08:04.219Z,2.00
2018-12-25T09:10:42.202Z,2.00
2018-12-25T09:13:13.374Z,2.10
2018-12-25T09:15:49.948Z,2.10
2018-12-25T09:18:27.776Z,2.10
2018-12-25T09:21:08.631Z,2.10
2018-12-25T09:23:45.449Z,2.10
2018-12-25T09:26:22.286Z,2.00
2018-12-25T09:29:00.088Z,2.00
2018-12-25T09:31:37.425Z,2.00
2018-12-25T09:34:15.778Z,2.00
2018-12-25T09:36:56.332Z,2.00
2018-12-25T09:39:34.985Z,2.00
2018-12-25T09:42:08.662Z,2.00
2018-12-25T09:44:43.158Z,2.00
2018-12-25T09:47:14.330Z,2.00
2018-12-25T09:49:50.355Z,2.00
2018-12-25T09:52:20.342Z,2.00
2018-12-25T09:55:00.144Z,2.10
2018-12-25T09:57:30.840Z,2.30
2018-12-25T10:00:01.943Z,2.30
2018-12-25T10:02:35.557Z,2.20
2018-12-25T10:05:11.799Z,2.20
2018-12-25T10:07:46.021Z,2.20
2018-12-25T10:10:23.798Z,2.20
2018-12-25T10:12:54.930Z,2.20
2018-12-25T10:15:27.571Z,2.20
2018-12-25T10:18:06.161Z,2.20
2018-12-25T10:20:41.234Z,2.20
2018-12-25T10:23:16.496Z,2.20
2018-12-25T10:25:53.871Z,2.20
2018-12-25T10:28:31.058Z,2.10
2018-12-25T10:31:06.786Z,2.00
2018-12-25T10:33:45.191Z,2.10
2018-12-25T10:36:18.537Z,2.10
2018-12-25T10:38:56.069Z,2.00
2018-12-25T10:41:31.970Z,2.10
2018-12-25T10:44:02.052Z,2.20
2018-12-25T10:46:37.280Z,2.20
2018-12-25T10:49:16.231Z,2.30
2018-12-25T10:51:54.834Z,2.30
2018-12-25T10:54:30.353Z,2.40
2018-12-25T10:57:08.754Z,2.40
2018-12-25T10:59:38.229Z,2.50
2018-12-25T11:02:13.067Z,2.40
2018-12-25T11:04:44.500Z,2.40
2018-12-25T11:07:19.135Z,2.40
2018-12-25T11:09:55.754Z,2.50
2018-12-25T11:12:25.185Z,2.50
2018-12-25T11:14:56.160Z,2.50
2018-12-25T11:17:25.441Z,2.50
2018-12-25T11:19:54.791Z,2.50
2018-12-25T11:22:24.345Z,2.50
2018-12-25T11:24:53.451Z,2.50
2018-12-25T11:27:22.712Z,2.50
2018-12-25T11:29:51.822Z,2.50
2018-12-25T11:32:21.033Z,2.40
2018-12-25T11:34:50.566Z,2.40
2018-12-25T11:37:19.998Z,2.40
2018-12-25T11:39:49.688Z,2.30
2018-12-25T11:42:19.153Z,2.30
2018-12-25T11:44:48.292Z,2.20
2018-12-25T11:47:18.017Z,2.20
2018-12-25T11:49:47.612Z,2.20
2018-12-25T11:52:17.060Z,2.20
2018-12-25T11:54:46.697Z,2.20
2018-12-25T11:57:15.976Z,2.20
2018-12-25T11:59:45.054Z,2.30
2018-12-25T12:02:17.181Z,2.30
2018-12-25T12:04:44.638Z,2.20
2018-12-25T12:07:13.848Z,2.20
2018-12-25T12:09:44.104Z,2.10
2018-12-25T12:12:13.667Z,2.10
2018-12-25T12:14:43.104Z,2.10
2018-12-25T12:17:12.503Z,2.00
2018-12-25T12:19:41.925Z,2.10
2018-12-25T12:22:11.021Z,2.10
2018-12-25T12:24:40.212Z,2.20
2018-12-25T12:27:09.611Z,2.20
2018-12-25T12:29:38.475Z,2.20
2018-12-25T12:32:07.629Z,2.30
2018-12-25T12:34:36.841Z,2.40
2018-12-25T12:37:06.172Z,2.40
2018-12-25T12:39:35.452Z,2.50
2018-12-25T12:42:05.010Z,2.50
2018-12-25T12:44:34.447Z,2.50
2018-12-25T12:47:03.966Z,2.60
2018-12-25T12:49:33.710Z,2.60
2018-12-25T12:52:02.786Z,2.50
2018-12-25T12:54:32.346Z,2.50
2018-12-25T12:57:02.047Z,2.50
2018-12-25T12:59:31.483Z,2.50
2018-12-25T13:02:00.743Z,2.50
2018-12-25T13:04:29.860Z,2.40
2018-12-25T13:06:58.795Z,2.50
2018-12-25T13:09:28.220Z,2.50
2018-12-25T13:11:57.357Z,2.40
2018-12-25T13:14:26.799Z,2.40
2018-12-25T13:16:56.230Z,2.40
2018-12-25T13:19:25.526Z,2.40
2018-12-25T13:21:54.951Z,2.40
2018-12-25T13:24:24.653Z,2.40
2018-12-25T13:26:54.092Z,2.50
2018-12-25T13:29:23.466Z,2.50
2018-12-25T13:31:53.025Z,2.50
2018-12-25T13:34:22.488Z,2.50
2018-12-25T13:36:51.679Z,2.60
2018-12-25T13:39:21.203Z,2.50
2018-12-25T13:41:50.475Z,2.50
2018-12-25T13:44:19.568Z,2.50
2018-12-25T13:46:51.703Z,2.50
2018-12-25T13:49:20.681Z,2.30
2018-12-25T13:51:50.202Z,2.40
2018-12-25T13:54:19.682Z,2.40
2018-12-25T13:56:49.168Z,2.30
2018-12-25T13:59:18.621Z,2.20
2018-12-25T14:01:47.996Z,2.20
2018-12-25T14:04:17.202Z,2.20
2018-12-25T14:06:46.647Z,2.20
2018-12-25T14:09:16.002Z,2.20
2018-12-25T14:11:45.466Z,2.10
2018-12-25T14:14:14.591Z,2.10
2018-12-25T14:16:43.822Z,2.10
2018-12-25T14:19:12.847Z,2.10
2018-12-25T14:21:41.777Z,2.00
2018-12-25T14:24:11.204Z,2.10
2018-12-25T14:26:40.388Z,2.00
2018-12-25T14:29:09.504Z,2.00
2018-12-25T14:31:38.676Z,2.00
2018-12-25T14:34:08.396Z,2.00
2018-12-25T14:36:38.002Z,2.10
2018-12-25T14:39:07.721Z,2.20
2018-12-25T14:41:36.635Z,2.30
2018-12-25T14:44:05.847Z,2.30
2018-12-25T14:46:35.225Z,2.20
2018-12-25T14:49:04.400Z,2.20
2018-12-25T14:51:33.829Z,2.20
2018-12-25T14:54:03.667Z,2.20
2018-12-25T14:56:32.502Z,2.20
2018-12-25T14:59:02.130Z,2.20
2018-12-25T15:01:31.485Z,2.10
2018-12-25T15:04:01.043Z,2.00
2018-12-25T15:06:30.138Z,2.00
2018-12-25T15:08:59.486Z,2.00
2018-12-25T15:11:28.770Z,1.90
2018-12-25T15:13:58.148Z,1.90
2018-12-25T15:16:27.399Z,1.90
2018-12-25T15:18:56.920Z,1.80
2018-12-25T15:21:25.565Z,1.70
2018-12-25T15:23:54.521Z,1.70
2018-12-25T15:26:23.594Z,1.70
2018-12-25T15:28:53.507Z,1.70
2018-12-25T15:31:22.431Z,1.60
2018-12-25T15:33:51.975Z,1.60
2018-12-25T15:36:21.551Z,1.60
2018-12-25T15:38:51.389Z,1.50
2018-12-25T15:41:20.658Z,1.50
2018-12-25T15:43:49.610Z,1.50
2018-12-25T15:46:18.657Z,1.50
2018-12-25T15:48:48.127Z,1.50
2018-12-25T15:51:17.177Z,1.40
2018-12-25T15:53:46.340Z,1.40
2018-12-25T15:56:15.458Z,1.40
2018-12-25T15:58:44.606Z,1.40
2018-12-25T16:01:13.907Z,1.20
2018-12-25T16:03:42.841Z,1.20
2018-12-25T16:06:13.362Z,1.10
2018-12-25T16:08:42.933Z,1.00
2018-12-25T16:11:12.837Z,1.10
2018-12-25T16:13:42.464Z,1.00
2018-12-25T16:16:11.797Z,0.90
2018-12-25T16:18:41.109Z,0.90
2018-12-25T16:21:10.451Z,0.90
2018-12-25T16:23:45.221Z,0.80
2018-12-25T16:26:11.170Z,0.80
2018-12-25T16:28:40.561Z,0.80
2018-12-25T16:31:09.831Z,0.80
2018-12-25T16:33:39.626Z,0.80
2018-12-25T16:36:09.134Z,0.80
2018-12-25T16:38:38.276Z,0.90
2018-12-25T16:41:07.747Z,0.90
2018-12-25T16:43:37.160Z,0.80
2018-12-25T16:46:06.156Z,0.80
2018-12-25T16:48:34.833Z,0.70
2018-12-25T16:51:04.424Z,0.70
2018-12-25T16:53:33.779Z,0.70
2018-12-25T16:56:03.432Z,0.70
2018-12-25T16:58:32.615Z,0.70
2018-12-25T17:01:02.200Z,0.70
2018-12-25T17:03:31.361Z,0.70
2018-12-25T17:06:00.459Z,0.80
2018-12-25T17:08:29.484Z,0.80
2018-12-25T17:10:58.655Z,0.80
2018-12-25T17:13:28.028Z,0.80
2018-12-25T17:15:57.050Z,0.80
2018-12-25T17:18:26.564Z,0.70
2018-12-25T17:20:55.933Z,0.70
2018-12-25T17:23:25.474Z,0.70
2018-12-25T17:25:54.639Z,0.60
2018-12-25T17:28:27.750Z,0.60
2018-12-25T17:30:54.664Z,0.60
2018-12-25T17:33:23.619Z,0.50
2018-12-25T17:35:52.743Z,0.50
2018-12-25T17:38:22.134Z,0.50
2018-12-25T17:40:51.345Z,0.40
2018-12-25T17:43:20.420Z,0.40
2018-12-25T17:45:49.445Z,0.40
2018-12-25T17:48:18.169Z,0.40
2018-12-25T17:50:47.470Z,0.40
2018-12-25T17:53:16.917Z,0.40
2018-12-25T17:55:46.198Z,0.40
2018-12-25T17:58:15.572Z,0.40
2018-12-25T18:00:44.925Z,0.40
2018-12-25T18:03:13.765Z,0.40
2018-12-25T18:05:42.930Z,0.40
2018-12-25T18:08:11.760Z,0.40
2018-12-25T18:10:41.026Z,0.40
2018-12-25T18:13:10.233Z,0.40
2018-12-25T18:15:39.089Z,0.40
2018-12-25T18:18:18.082Z,0.40
2018-12-25T18:20:51.309Z,0.30
2018-12-25T18:23:28.256Z,0.30
2018-12-25T18:26:00.215Z,0.30
2018-12-25T18:28:36.627Z,0.20
2018-12-25T18:31:15.634Z,0.20
2018-12-25T18:33:44.926Z,0.20
2018-12-25T18:36:18.703Z,0.20
2018-12-25T18:38:56.410Z,0.10
2018-12-25T18:41:32.431Z,0.10
2018-12-25T18:44:09.337Z,0.10
2018-12-25T18:46:39.605Z,0.10
2018-12-25T18:49:17.723Z,0.10
2018-12-25T18:51:53.560Z,0.00
2018-12-25T18:54:29.066Z,0.00
2018-12-25T18:57:05.079Z,0.00
2018-12-25T18:59:41.826Z,0.00
2018-12-25T19:02:16.625Z,0.00
2018-12-25T19:04:51.841Z,0.00
2018-12-25T19:07:18.875Z,0.00
2018-12-25T19:09:55.707Z,0.00
2018-12-25T19:12:28.848Z,0.00
2018-12-25T19:14:58.956Z,0.00
2018-12-25T19:17:27.652Z,0.00
2018-12-25T19:19:56.396Z,0.00
2018-12-25T19:22:25.157Z,0.40
2018-12-25T19:24:53.774Z,-0.10
2018-12-25T19:27:22.335Z,-0.10
2018-12-25T19:29:50.861Z,-0.20
2018-12-25T19:32:19.422Z,-0.20
2018-12-25T19:34:48.091Z,-0.20
2018-12-25T19:37:16.707Z,-0.20
2018-12-25T19:39:47.043Z,-0.30
2018-12-25T19:42:15.555Z,-0.30
2018-12-25T19:44:44.252Z,-0.30
2018-12-25T19:47:12.823Z,-0.30
2018-12-25T19:49:41.566Z,-0.30
2018-12-25T19:52:10.223Z,-0.30
2018-12-25T19:54:44.592Z,-0.20
2018-12-25T19:57:19.021Z,-0.20
2018-12-25T19:59:57.725Z,-0.20
2018-12-25T20:02:37.487Z,-0.20
2018-12-25T20:05:17.737Z,-0.20
2018-12-25T20:08:19.532Z,-0.30
2018-12-25T20:10:57.727Z,-0.30
2018-12-25T20:13:39.214Z,-0.30
2018-12-25T20:16:42.761Z,-0.30
2018-12-25T20:19:19.447Z,-0.30
2018-12-25T20:21:59.910Z,-0.30
2018-12-25T20:24:54.484Z,-0.40
2018-12-25T20:27:53.565Z,-0.40
2018-12-25T20:31:02.481Z,-0.40
2018-12-25T20:33:43.290Z,-0.50
2018-12-25T20:36:21.547Z,-0.60
2018-12-25T20:39:25.306Z,-0.60
2018-12-25T20:42:14.773Z,-0.60
2018-12-25T20:45:19.703Z,-0.60
2018-12-25T20:48:21.774Z,-0.50
2018-12-25T20:51:32.139Z,-0.70
2018-12-25T20:54:45.270Z,-0.70
2018-12-25T20:57:41.667Z,-0.60
2018-12-25T21:00:43.523Z,-0.60
2018-12-25T21:03:38.114Z,-0.60
2018-12-25T21:06:33.051Z,-0.60
2018-12-25T21:09:22.571Z,-0.60
2018-12-25T21:12:05.164Z,-0.70
2018-12-25T21:14:58.682Z,-0.70
2018-12-25T21:17:52.150Z,-0.70
2018-12-25T21:20:59.629Z,-0.70
2018-12-25T21:24:07.726Z,-0.60
2018-12-25T21:27:20.331Z,-0.60
2018-12-25T21:29:55.538Z,-0.60
2018-12-25T21:32:35.809Z,-0.60
2018-12-25T21:35:16.770Z,-0.60
2018-12-25T21:37:53.969Z,-0.50
2018-12-25T21:40:30.667Z,-0.50
2018-12-25T21:43:06.900Z,-0.60
2018-12-25T21:45:42.019Z,-0.60
2018-12-25T21:48:17.725Z,-0.60
2018-12-25T21:50:55.789Z,-0.60
2018-12-25T21:53:31.848Z,-0.60
2018-12-25T21:56:07.725Z,-0.60
2018-12-25T21:58:46.611Z,-0.60
2018-12-25T22:01:26.108Z,-0.60
2018-12-25T22:03:55.212Z,-0.60
2018-12-25T22:06:33.327Z,-0.60
2018-12-25T22:09:16.040Z,-0.60
2018-12-25T22:11:57.566Z,-0.60
2018-12-25T22:14:33.261Z,-0.60
2018-12-25T22:17:11.709Z,-0.60
2018-12-25T22:19:47.710Z,-0.60
2018-12-25T22:22:22.110Z,-0.60
2018-12-25T22:25:00.704Z,-0.60
2018-12-25T22:27:39.806Z,-0.60
2018-12-25T22:30:17.726Z,-0.60
2018-12-25T22:32:53.875Z,-0.60
2018-12-25T22:35:28.110Z,-0.60
2018-12-25T22:37:59.526Z,-0.70
2018-12-25T22:40:29.014Z,-0.70
2018-12-25T22:42:57.891Z,-0.70
2018-12-25T22:45:37.224Z,-0.70
2018-12-25T22:48:14.135Z,-0.70
2018-12-25T22:50:54.945Z,-0.70
2018-12-25T22:53:29.734Z,-0.70
2018-12-25T22:56:07.726Z,-0.70
2018-12-25T22:58:47.725Z,-0.70
2018-12-25T23:01:28.061Z,-0.80
2018-12-25T23:04:06.437Z,-0.80
2018-12-25T23:06:45.427Z,-0.80
2018-12-25T23:09:27.694Z,-0.80
2018-12-25T23:12:00.109Z,-0.90
2018-12-25T23:14:39.170Z,-0.90
2018-12-25T23:17:17.205Z,-1.00
2018-12-25T23:20:00.257Z,-1.00
2018-12-25T23:22:37.727Z,-1.00
2018-12-25T23:25:19.730Z,-1.00
2018-12-25T23:27:55.366Z,-1.00
2018-12-25T23:30:33.844Z,-1.00
2018-12-25T23:33:15.307Z,-1.00
2018-12-25T23:35:54.715Z,-1.00
2018-12-25T23:38:36.057Z,-1.00
2018-12-25T23:41:12.852Z,-1.00
2018-12-25T23:43:55.340Z,-1.10
2018-12-25T23:46:37.726Z,-1.10
2018-12-25T23:49:17.067Z,-1.10
2018-12-25T23:51:52.440Z,-1.10
2018-12-25T23:54:34.290Z,-1.10
2018-12-25T23:57:14.693Z,-1.20
2018-12-25T23:59:54.793Z,-1.20
